createdAt,value
2023-03-05T00:00:38.173Z,16
2023-03-05T00:01:38.185Z,19
2023-03-05T00:02:38.205Z,18
2023-03-05T00:03:38.219Z,18
2023-03-05T00:04:38.184Z,14
2023-03-05T00:05:38.174Z,16
2023-03-05T00:06:38.173Z,14
2023-03-05T00:07:38.201Z,16
2023-03-05T00:08:38.200Z,14
2023-03-05T00:09:38.181Z,15
2023-03-05T00:10:38.170Z,20
2023-03-05T00:11:38.178Z,14
2023-03-05T00:12:38.170Z,18
2023-03-05T00:13:38.189Z,17
2023-03-05T00:14:38.172Z,17
2023-03-05T00:15:38.178Z,17
2023-03-05T00:16:38.195Z,12
2023-03-05T00:17:38.174Z,14
2023-03-05T00:18:38.189Z,16
2023-03-05T00:19:38.178Z,14
2023-03-05T00:20:38.173Z,14
2023-03-05T00:21:38.186Z,20
2023-03-05T00:22:38.191Z,14
2023-03-05T00:23:38.178Z,15
2023-03-05T00:24:38.180Z,18
2023-03-05T00:25:38.180Z,17
2023-03-05T00:26:38.166Z,13
2023-03-05T00:27:38.172Z,18
2023-03-05T00:28:38.179Z,17
2023-03-05T00:29:38.176Z,19
2023-03-05T00:30:38.184Z,18
2023-03-05T00:31:38.270Z,15
2023-03-05T00:32:38.290Z,15
2023-03-05T00:33:38.173Z,18
2023-03-05T00:34:38.168Z,15
2023-03-05T00:35:38.182Z,14
2023-03-05T00:36:38.166Z,16
2023-03-05T00:37:38.171Z,17
2023-03-05T00:38:38.186Z,15
2023-03-05T00:39:38.170Z,16
2023-03-05T00:40:38.318Z,14
2023-03-05T00:41:38.178Z,13
2023-03-05T00:42:38.173Z,16
2023-03-05T00:43:38.165Z,14
2023-03-05T00:44:38.185Z,17
2023-03-05T00:45:38.172Z,16
2023-03-05T00:46:38.209Z,15
2023-03-05T00:47:38.204Z,17
2023-03-05T00:48:38.178Z,13
2023-03-05T00:49:38.179Z,13
2023-03-05T00:50:38.177Z,16
2023-03-05T00:51:38.171Z,19
2023-03-05T00:52:38.180Z,16
2023-03-05T00:53:38.203Z,18
2023-03-05T00:54:38.192Z,17
2023-03-05T00:55:38.193Z,19
2023-03-05T00:56:38.180Z,17
2023-03-05T00:57:38.184Z,18
2023-03-05T00:58:38.180Z,18
2023-03-05T00:59:38.214Z,16
2023-03-05T01:00:38.189Z,18
2023-03-05T01:01:38.266Z,17
2023-03-05T01:02:38.173Z,15
2023-03-05T01:03:38.171Z,16
2023-03-05T01:04:38.164Z,15
2023-03-05T01:05:38.323Z,15
2023-03-05T01:06:38.162Z,17
2023-03-05T01:07:38.187Z,17
2023-03-05T01:10:38.160Z,18
2023-03-05T01:13:38.172Z,13
2023-03-05T01:15:38.170Z,16
2023-03-05T01:18:38.179Z,15
2023-03-05T01:27:38.174Z,15
2023-03-05T01:28:38.566Z,12
2023-03-05T01:41:38.228Z,11
2023-03-05T01:44:38.307Z,12
2023-03-05T01:46:38.245Z,12
2023-03-05T01:49:38.170Z,13
2023-03-05T01:51:38.169Z,12
2023-03-05T01:56:38.161Z,12
2023-03-05T01:59:38.160Z,14
2023-03-05T02:00:38.169Z,14
2023-03-05T02:03:38.265Z,15
2023-03-05T02:06:38.165Z,10
2023-03-05T02:08:38.176Z,11
2023-03-05T02:20:38.259Z,9
2023-03-05T02:22:38.163Z,11
2023-03-05T02:24:38.239Z,13
2023-03-05T02:28:38.160Z,12
2023-03-05T02:34:38.536Z,12
2023-03-05T02:35:38.252Z,15
2023-03-05T02:38:38.161Z,16
2023-03-05T02:41:38.184Z,14
2023-03-05T02:43:38.161Z,12
2023-03-05T02:45:38.214Z,15
2023-03-05T02:46:38.169Z,18
2023-03-05T02:49:38.179Z,15
2023-03-05T02:50:38.161Z,13
2023-03-05T02:51:38.178Z,14
2023-03-05T02:53:38.161Z,16
2023-03-05T02:56:38.175Z,16
2023-03-05T02:57:38.169Z,11
2023-03-05T03:00:38.167Z,15
2023-03-05T03:01:38.248Z,13
2023-03-05T03:02:38.162Z,16
2023-03-05T03:06:38.160Z,12
2023-03-05T03:07:38.161Z,16
2023-03-05T03:09:38.160Z,14
2023-03-05T03:12:38.175Z,15
2023-03-05T03:13:38.162Z,13
2023-03-05T03:14:38.178Z,13
2023-03-05T03:15:38.159Z,14
2023-03-05T03:16:38.277Z,15
2023-03-05T03:17:38.181Z,15
2023-03-05T03:19:38.199Z,15
2023-03-05T03:20:38.164Z,16
2023-03-05T03:21:38.223Z,14
2023-03-05T03:22:38.192Z,13
2023-03-05T03:23:38.173Z,15
2023-03-05T03:24:38.164Z,17
2023-03-05T03:25:38.162Z,15
2023-03-05T03:27:38.177Z,16
2023-03-05T03:28:38.169Z,15
2023-03-05T03:29:38.187Z,16
2023-03-05T03:30:38.180Z,16
2023-03-05T03:31:38.163Z,15
2023-03-05T03:32:38.162Z,15
2023-03-05T03:33:38.160Z,16
2023-03-05T03:34:38.171Z,17
2023-03-05T03:35:38.216Z,16
2023-03-05T03:36:38.173Z,13
2023-03-05T03:37:38.169Z,15
2023-03-05T03:38:38.181Z,17
2023-03-05T03:39:38.164Z,15
2023-03-05T03:40:38.173Z,20
2023-03-05T03:41:38.169Z,16
2023-03-05T03:42:38.179Z,15
2023-03-05T03:43:38.161Z,14
2023-03-05T03:45:38.166Z,15
2023-03-05T03:46:38.225Z,15
2023-03-05T03:47:38.160Z,16
2023-03-05T03:48:38.243Z,15
2023-03-05T03:49:38.169Z,17
2023-03-05T03:50:38.172Z,17
2023-03-05T03:51:38.162Z,18
2023-03-05T03:52:38.162Z,15
2023-03-05T03:53:38.197Z,16
2023-03-05T03:54:38.168Z,18
2023-03-05T03:55:38.167Z,19
2023-03-05T03:56:38.174Z,18
2023-03-05T03:57:38.171Z,16
2023-03-05T03:58:38.173Z,16
2023-03-05T03:59:38.169Z,17
2023-03-05T04:00:38.169Z,15
2023-03-05T04:01:38.173Z,19
2023-03-05T04:02:38.228Z,18
2023-03-05T04:03:38.183Z,14
2023-03-05T04:04:38.270Z,17
2023-03-05T04:05:38.172Z,18
2023-03-05T04:06:38.168Z,15
2023-03-05T04:08:38.203Z,14
2023-03-05T04:09:38.168Z,14
2023-03-05T04:10:38.169Z,12
2023-03-05T04:11:38.166Z,14
2023-03-05T04:12:38.173Z,13
2023-03-05T04:13:38.170Z,13
2023-03-05T04:14:38.187Z,14
2023-03-05T04:15:38.273Z,11
2023-03-05T04:16:38.173Z,17
2023-03-05T04:17:38.173Z,14
2023-03-05T04:18:38.166Z,18
2023-03-05T04:19:38.173Z,10
2023-03-05T04:20:38.177Z,11
2023-03-05T04:21:38.171Z,13
2023-03-05T04:22:38.173Z,9
2023-03-05T04:23:38.167Z,13
2023-03-05T04:24:38.193Z,9
2023-03-05T04:25:38.178Z,11
2023-03-05T04:26:38.186Z,8
2023-03-05T04:27:38.167Z,9
2023-03-05T04:28:38.160Z,6
2023-03-05T04:29:38.172Z,7
2023-03-05T04:30:38.171Z,9
2023-03-05T04:31:38.170Z,5
2023-03-05T04:32:38.293Z,9
2023-03-05T04:33:38.172Z,9
2023-03-05T04:34:38.170Z,7
2023-03-05T04:35:38.238Z,11
2023-03-05T04:36:38.168Z,8
2023-03-05T04:37:38.165Z,7
2023-03-05T04:38:38.159Z,8
2023-03-05T04:39:38.159Z,8
2023-03-05T04:40:38.165Z,12
2023-03-05T04:41:38.165Z,7
2023-03-05T04:42:38.168Z,8
2023-03-05T04:43:38.161Z,12
2023-03-05T04:45:38.164Z,11
2023-03-05T04:46:38.229Z,11
2023-03-05T04:47:38.164Z,7
2023-03-05T04:48:38.159Z,9
2023-03-05T04:50:38.169Z,9
2023-03-05T04:53:38.170Z,9
2023-03-05T04:54:38.174Z,8
2023-03-05T04:55:38.184Z,9
2023-03-05T04:56:38.168Z,11
2023-03-05T04:57:38.161Z,8
2023-03-05T04:58:38.161Z,11
2023-03-05T04:59:38.170Z,10
2023-03-05T05:00:38.175Z,10
2023-03-05T05:01:38.246Z,12
2023-03-05T05:03:38.164Z,10
2023-03-05T05:05:38.161Z,12
2023-03-05T05:06:38.171Z,13
2023-03-05T05:07:38.160Z,11
2023-03-05T05:09:38.264Z,12
2023-03-05T05:11:38.161Z,13
2023-03-05T05:12:38.175Z,14
2023-03-05T05:13:38.160Z,16
2023-03-05T05:14:38.280Z,16
2023-03-05T05:15:38.161Z,17
2023-03-05T05:16:38.201Z,15
2023-03-05T05:17:38.414Z,19
2023-03-05T05:18:38.179Z,19
2023-03-05T05:19:38.259Z,14
2023-03-05T05:21:38.229Z,17
2023-03-05T05:22:38.197Z,12
2023-03-05T05:23:38.169Z,14
2023-03-05T05:24:38.165Z,14
2023-03-05T05:26:38.199Z,13
2023-03-05T05:27:38.159Z,16
2023-03-05T05:28:38.169Z,13
2023-03-05T05:30:38.262Z,15
2023-03-05T05:31:38.175Z,12
2023-03-05T05:32:38.263Z,15
2023-03-05T05:33:38.173Z,13
2023-03-05T05:34:38.165Z,17
2023-03-05T05:35:38.207Z,17
2023-03-05T05:36:38.172Z,16
2023-03-05T05:37:38.165Z,14
2023-03-05T05:38:38.185Z,15
2023-03-05T05:39:38.167Z,17
2023-03-05T05:40:38.169Z,19
2023-03-05T05:41:38.172Z,17
2023-03-05T05:42:38.178Z,15
2023-03-05T05:43:38.168Z,15
2023-03-05T05:44:38.170Z,20
2023-03-05T05:45:38.399Z,16
2023-03-05T05:46:38.311Z,17
2023-03-05T05:47:38.172Z,15
2023-03-05T05:48:38.174Z,13
2023-03-05T05:49:38.169Z,15
2023-03-05T05:50:38.178Z,15
2023-03-05T05:51:38.172Z,14
2023-03-05T05:52:38.173Z,16
2023-03-05T05:53:38.178Z,15
2023-03-05T05:54:38.169Z,16
2023-03-05T05:55:38.170Z,19
2023-03-05T05:56:38.187Z,16
2023-03-05T05:57:38.202Z,14
2023-03-05T05:58:38.170Z,16
2023-03-05T05:59:38.187Z,13
2023-03-05T06:00:38.170Z,14
2023-03-05T06:01:38.295Z,15
2023-03-05T06:02:38.221Z,15
2023-03-05T06:03:38.169Z,16
2023-03-05T06:04:38.171Z,16
2023-03-05T06:05:38.186Z,14
2023-03-05T06:06:38.182Z,14
2023-03-05T06:07:38.176Z,20
2023-03-05T06:08:38.200Z,16
2023-03-05T06:09:38.182Z,17
2023-03-05T06:10:38.170Z,15
2023-03-05T06:11:38.170Z,16
2023-03-05T06:12:38.178Z,16
2023-03-05T06:13:38.199Z,16
2023-03-05T06:14:38.163Z,19
2023-03-05T06:15:38.180Z,13
2023-03-05T06:16:38.226Z,16
2023-03-05T06:17:38.170Z,12
2023-03-05T06:18:38.185Z,15
2023-03-05T06:19:38.186Z,13
2023-03-05T06:20:38.166Z,14
2023-03-05T06:21:38.176Z,13
2023-03-05T06:22:38.176Z,14
2023-03-05T06:23:38.214Z,16
2023-03-05T06:24:38.185Z,16
2023-03-05T06:25:38.185Z,14
2023-03-05T06:26:38.179Z,13
2023-03-05T06:27:38.180Z,17
2023-03-05T06:28:38.195Z,14
2023-03-05T06:29:38.174Z,16
2023-03-05T06:30:38.199Z,12
2023-03-05T06:31:38.173Z,16
2023-03-05T06:32:38.200Z,12
2023-03-05T06:33:38.178Z,19
2023-03-05T06:34:38.176Z,16
2023-03-05T06:35:38.230Z,15
2023-03-05T06:36:38.176Z,13
2023-03-05T06:37:38.179Z,16
2023-03-05T06:38:38.172Z,16
2023-03-05T06:39:38.168Z,16
2023-03-05T06:40:38.188Z,19
2023-03-05T06:41:38.177Z,13
2023-03-05T06:42:38.180Z,14
2023-03-05T06:43:38.174Z,16
2023-03-05T06:44:38.184Z,15
2023-03-05T06:45:38.262Z,15
2023-03-05T06:46:38.229Z,13
2023-03-05T06:47:38.174Z,15
2023-03-05T06:48:38.175Z,18
2023-03-05T06:49:38.198Z,17
2023-03-05T06:50:38.248Z,15
2023-03-05T06:51:38.174Z,14
2023-03-05T06:52:38.169Z,18
2023-03-05T06:53:38.184Z,17
2023-03-05T06:54:38.185Z,16
2023-03-05T06:55:38.197Z,16
2023-03-05T06:56:38.198Z,17
2023-03-05T06:57:38.190Z,13
2023-03-05T06:58:38.171Z,16
2023-03-05T06:59:38.196Z,18
2023-03-05T07:00:38.220Z,18
2023-03-05T07:01:38.277Z,17
2023-03-05T07:02:38.246Z,18
2023-03-05T07:03:38.189Z,16
2023-03-05T07:04:38.182Z,18
2023-03-05T07:05:38.180Z,18
2023-03-05T07:06:38.198Z,18
2023-03-05T07:07:38.179Z,17
2023-03-05T07:08:38.180Z,16
2023-03-05T07:09:38.195Z,17
2023-03-05T07:10:38.175Z,19
2023-03-05T07:11:38.181Z,18
2023-03-05T07:12:38.183Z,15
2023-03-05T07:13:38.170Z,17
2023-03-05T07:14:38.175Z,17
2023-03-05T07:15:38.320Z,17
2023-03-05T07:16:38.194Z,18
2023-03-05T07:17:38.187Z,15
2023-03-05T07:18:38.209Z,20
2023-03-05T07:19:38.171Z,17
2023-03-05T07:20:38.225Z,16
2023-03-05T07:21:39.880Z,20
2023-03-05T07:22:38.190Z,16
2023-03-05T07:23:38.182Z,18
2023-03-05T07:24:38.181Z,16
2023-03-05T07:25:38.216Z,18
2023-03-05T07:26:38.183Z,13
2023-03-05T07:27:38.205Z,17
2023-03-05T07:28:38.178Z,16
2023-03-05T07:29:38.174Z,17
2023-03-05T07:30:38.295Z,18
2023-03-05T07:31:38.181Z,19
2023-03-05T07:32:38.224Z,18
2023-03-05T07:33:38.181Z,17
2023-03-05T07:34:38.183Z,17
2023-03-05T07:35:38.226Z,20
2023-03-05T07:36:38.241Z,14
2023-03-05T07:37:38.192Z,15
2023-03-05T07:38:38.199Z,16
2023-03-05T07:39:38.176Z,15
2023-03-05T07:40:38.189Z,18
2023-03-05T07:41:38.182Z,16
2023-03-05T07:42:38.264Z,16
2023-03-05T07:43:38.181Z,17
2023-03-05T07:44:38.178Z,15
2023-03-05T07:45:38.219Z,16
2023-03-05T07:46:38.304Z,14
2023-03-05T07:47:38.191Z,14
2023-03-05T07:48:38.182Z,13
2023-03-05T07:49:38.171Z,13
2023-03-05T07:50:38.220Z,13
2023-03-05T07:51:38.197Z,14
2023-03-05T07:52:38.183Z,14
2023-03-05T07:53:38.182Z,17
2023-03-05T07:54:38.189Z,13
2023-03-05T07:55:38.179Z,15
2023-03-05T07:56:38.197Z,13
2023-03-05T07:57:38.184Z,13
2023-03-05T07:58:38.181Z,14
2023-03-05T07:59:38.185Z,14
2023-03-05T08:00:38.200Z,15
2023-03-05T08:01:38.209Z,17
2023-03-05T08:02:38.211Z,14
2023-03-05T08:03:38.189Z,14
2023-03-05T08:04:38.183Z,14
2023-03-05T08:05:38.181Z,15
2023-03-05T08:06:38.357Z,12
2023-03-05T08:07:38.191Z,13
2023-03-05T08:08:38.188Z,15
2023-03-05T08:09:38.180Z,16
2023-03-05T08:10:38.195Z,15
2023-03-05T08:11:38.179Z,14
2023-03-05T08:12:38.186Z,15
2023-03-05T08:13:38.198Z,17
2023-03-05T08:14:38.193Z,13
2023-03-05T08:15:38.317Z,16
2023-03-05T08:16:38.190Z,14
2023-03-05T08:17:38.189Z,15
2023-03-05T08:18:38.184Z,15
2023-03-05T08:19:38.182Z,15
2023-03-05T08:20:38.220Z,13
2023-03-05T08:21:38.177Z,12
2023-03-05T08:22:38.184Z,13
2023-03-05T08:23:38.186Z,15
2023-03-05T08:24:38.206Z,13
2023-03-05T08:25:38.183Z,14
2023-03-05T08:26:38.189Z,12
2023-03-05T08:27:38.202Z,16
2023-03-05T08:28:38.190Z,12
2023-03-05T08:29:38.269Z,12
2023-03-05T08:30:38.246Z,13
2023-03-05T08:31:38.309Z,13
2023-03-05T08:32:38.254Z,14
2023-03-05T08:33:38.199Z,13
2023-03-05T08:34:38.178Z,15
2023-03-05T08:35:38.254Z,14
2023-03-05T08:36:38.192Z,15
2023-03-05T08:37:38.188Z,14
2023-03-05T08:38:38.189Z,15
2023-03-05T08:39:38.180Z,15
2023-03-05T08:40:38.237Z,14
2023-03-05T08:41:38.177Z,13
2023-03-05T08:42:38.186Z,15
2023-03-05T08:43:38.186Z,17
2023-03-05T08:44:38.182Z,15
2023-03-05T08:45:38.200Z,14
2023-03-05T08:46:38.226Z,17
2023-03-05T08:47:38.185Z,16
2023-03-05T08:48:38.196Z,20
2023-03-05T08:49:38.207Z,17
2023-03-05T08:50:39.064Z,16
2023-03-05T08:51:38.183Z,18
2023-03-05T08:52:38.185Z,16
2023-03-05T08:53:38.187Z,15
2023-03-05T08:54:38.180Z,18
2023-03-05T08:55:38.188Z,18
2023-03-05T08:56:38.192Z,16
2023-03-05T08:57:38.192Z,19
2023-03-05T08:58:38.189Z,17
2023-03-05T08:59:38.194Z,14
2023-03-05T09:00:38.196Z,21
2023-03-05T09:01:38.291Z,17
2023-03-05T09:02:38.344Z,19
2023-03-05T09:03:38.233Z,20
2023-03-05T09:04:38.188Z,21
2023-03-05T09:05:39.179Z,19
2023-03-05T09:06:38.214Z,22
2023-03-05T09:07:38.189Z,20
2023-03-05T09:08:38.184Z,18
2023-03-05T09:09:38.186Z,20
2023-03-05T09:10:38.197Z,21
2023-03-05T09:11:38.192Z,19
2023-03-05T09:12:38.212Z,19
2023-03-05T09:13:38.253Z,18
2023-03-05T09:14:38.192Z,18
2023-03-05T09:15:38.201Z,18
2023-03-05T09:16:38.260Z,20
2023-03-05T09:17:38.192Z,23
2023-03-05T09:18:38.187Z,23
2023-03-05T09:19:38.184Z,19
2023-03-05T09:20:38.199Z,19
2023-03-05T09:21:38.186Z,22
2023-03-05T09:22:38.248Z,21
2023-03-05T09:23:38.191Z,20
2023-03-05T09:24:38.177Z,20
2023-03-05T09:25:38.187Z,21
2023-03-05T09:26:38.189Z,21
2023-03-05T09:27:38.195Z,22
2023-03-05T09:28:38.187Z,20
2023-03-05T09:29:38.184Z,19
2023-03-05T09:30:38.180Z,20
2023-03-05T09:31:38.279Z,21
2023-03-05T09:32:38.234Z,18
2023-03-05T09:33:38.189Z,20
2023-03-05T09:34:38.227Z,18
2023-03-05T09:35:38.236Z,21
2023-03-05T09:36:38.204Z,21
2023-03-05T09:37:38.193Z,20
2023-03-05T09:38:38.190Z,16
2023-03-05T09:39:38.193Z,18
2023-03-05T09:40:38.182Z,23
2023-03-05T09:41:38.199Z,20
2023-03-05T09:42:38.193Z,18
2023-03-05T09:43:38.184Z,19
2023-03-05T09:44:38.180Z,18
2023-03-05T09:45:38.243Z,19
2023-03-05T09:46:38.185Z,20
2023-03-05T09:47:38.179Z,17
2023-03-05T09:48:38.185Z,20
2023-03-05T09:49:38.188Z,20
2023-03-05T09:50:38.185Z,19
2023-03-05T09:51:38.185Z,19
2023-03-05T09:52:38.193Z,21
2023-03-05T09:53:38.193Z,19
2023-03-05T09:54:38.187Z,20
2023-03-05T09:55:38.191Z,20
2023-03-05T09:56:38.211Z,20
2023-03-05T09:57:38.207Z,19
2023-03-05T09:58:38.199Z,18
2023-03-05T09:59:38.202Z,20
2023-03-05T10:00:38.189Z,19
2023-03-05T10:01:38.188Z,18
2023-03-05T10:02:38.649Z,16
2023-03-05T10:03:38.249Z,19
2023-03-05T10:04:38.251Z,16
2023-03-05T10:05:38.215Z,19
2023-03-05T10:06:38.189Z,19
2023-03-05T10:07:38.190Z,18
2023-03-05T10:08:38.187Z,17
2023-03-05T10:09:38.189Z,17
2023-03-05T10:10:38.189Z,16
2023-03-05T10:11:38.199Z,16
2023-03-05T10:12:38.187Z,14
2023-03-05T10:13:38.185Z,15
2023-03-05T10:14:38.198Z,17
2023-03-05T10:15:38.194Z,15
2023-03-05T10:16:38.260Z,20
2023-03-05T10:17:38.198Z,15
2023-03-05T10:18:38.188Z,15
2023-03-05T10:19:38.193Z,15
2023-03-05T10:20:38.282Z,14
2023-03-05T10:21:40.187Z,15
2023-03-05T10:22:38.189Z,14
2023-03-05T10:23:38.194Z,15
2023-03-05T10:24:38.181Z,16
2023-03-05T10:25:38.196Z,13
2023-03-05T10:26:38.187Z,14
2023-03-05T10:27:38.193Z,16
2023-03-05T10:28:38.204Z,13
2023-03-05T10:29:38.199Z,13
2023-03-05T10:30:38.188Z,14
2023-03-05T10:31:38.340Z,14
2023-03-05T10:32:38.231Z,15
2023-03-05T10:33:38.186Z,14
2023-03-05T10:34:38.188Z,12
2023-03-05T10:35:38.291Z,11
2023-03-05T10:36:38.218Z,9
2023-03-05T10:37:38.211Z,9
2023-03-05T10:38:38.203Z,8
2023-03-05T10:39:38.197Z,9
2023-03-05T10:40:38.188Z,8
2023-03-05T10:41:38.194Z,9
2023-03-05T10:42:38.191Z,9
2023-03-05T10:43:38.188Z,8
2023-03-05T10:44:38.198Z,9
2023-03-05T10:45:38.210Z,9
2023-03-05T10:46:38.209Z,10
2023-03-05T10:47:38.224Z,9
2023-03-05T10:48:38.196Z,11
2023-03-05T10:49:38.201Z,10
2023-03-05T10:50:38.200Z,10
2023-03-05T10:51:38.213Z,9
2023-03-05T10:52:38.209Z,9
2023-03-05T10:53:38.193Z,9
2023-03-05T10:54:38.191Z,9
2023-03-05T10:55:38.198Z,8
2023-03-05T10:56:38.209Z,7
2023-03-05T10:57:38.188Z,8
2023-03-05T10:58:38.200Z,7
2023-03-05T10:59:38.186Z,7
2023-03-05T11:00:38.187Z,6
2023-03-05T11:01:38.308Z,5
2023-03-05T11:02:38.229Z,8
2023-03-05T11:03:38.191Z,5
2023-03-05T11:04:38.191Z,6
2023-03-05T11:05:38.185Z,6
2023-03-05T11:06:38.189Z,7
2023-03-05T11:07:38.212Z,7
2023-03-05T11:08:38.182Z,6
2023-03-05T11:09:38.187Z,5
2023-03-05T11:10:38.188Z,5
2023-03-05T11:11:38.185Z,6
2023-03-05T11:12:38.199Z,7
2023-03-05T11:13:38.194Z,4
2023-03-05T11:14:38.193Z,6
2023-03-05T11:15:38.224Z,5
2023-03-05T11:16:38.186Z,5
2023-03-05T11:17:38.191Z,5
2023-03-05T11:18:38.185Z,9
2023-03-05T11:19:38.181Z,6
2023-03-05T11:20:38.217Z,7
2023-03-05T11:21:38.190Z,10
2023-03-05T11:22:38.197Z,8
2023-03-05T11:23:38.194Z,7
2023-03-05T11:24:38.181Z,8
2023-03-05T11:25:38.188Z,8
2023-03-05T11:26:38.204Z,10
2023-03-05T11:27:38.202Z,8
2023-03-05T11:28:38.180Z,8
2023-03-05T11:29:38.183Z,7
2023-03-05T11:30:38.303Z,7
2023-03-05T11:31:38.188Z,11
2023-03-05T11:32:38.366Z,8
2023-03-05T11:33:38.194Z,9
2023-03-05T11:34:38.194Z,10
2023-03-05T11:35:38.238Z,10
2023-03-05T11:36:38.190Z,11
2023-03-05T11:37:38.228Z,9
2023-03-05T11:38:38.211Z,10
2023-03-05T11:39:38.191Z,10
2023-03-05T11:40:38.187Z,9
2023-03-05T11:41:38.202Z,12
2023-03-05T11:42:38.288Z,8
2023-03-05T11:43:38.194Z,9
2023-03-05T11:44:38.204Z,10
2023-03-05T11:45:38.189Z,9
2023-03-05T11:46:38.275Z,10
2023-03-05T11:47:38.265Z,12
2023-03-05T11:48:38.185Z,10
2023-03-05T11:49:38.207Z,10
2023-03-05T11:50:38.195Z,11
2023-03-05T11:51:38.191Z,10
2023-03-05T11:52:38.202Z,8
2023-03-05T11:53:38.188Z,11
2023-03-05T11:54:38.213Z,10
2023-03-05T11:55:38.202Z,11
2023-03-05T11:56:38.187Z,11
2023-03-05T11:57:38.194Z,9
2023-03-05T11:58:38.191Z,10
2023-03-05T11:59:38.189Z,10
2023-03-05T12:00:38.194Z,8
2023-03-05T12:01:38.192Z,10
2023-03-05T12:02:38.298Z,9
2023-03-05T12:03:38.255Z,9
2023-03-05T12:04:38.200Z,12
2023-03-05T12:05:38.214Z,12
2023-03-05T12:06:38.197Z,11
2023-03-05T12:07:38.196Z,10
2023-03-05T12:08:38.194Z,11
2023-03-05T12:09:38.218Z,9
2023-03-05T12:10:38.197Z,10
2023-03-05T12:11:38.205Z,13
2023-03-05T12:12:38.194Z,11
2023-03-05T12:13:40.120Z,13
2023-03-05T12:14:38.209Z,13
2023-03-05T12:15:38.196Z,10
2023-03-05T12:16:38.214Z,11
2023-03-05T12:17:38.199Z,11
2023-03-05T12:18:38.209Z,11
2023-03-05T12:19:38.209Z,10
2023-03-05T12:20:38.292Z,12
2023-03-05T12:21:38.207Z,13
2023-03-05T12:22:38.225Z,10
2023-03-05T12:23:38.226Z,12
2023-03-05T12:24:38.210Z,11
2023-03-05T12:25:38.206Z,12
2023-03-05T12:26:38.369Z,10
2023-03-05T12:27:38.200Z,10
2023-03-05T12:28:38.201Z,11
2023-03-05T12:29:38.197Z,10
2023-03-05T12:30:38.206Z,12
2023-03-05T12:31:38.306Z,11
2023-03-05T12:32:38.269Z,9
2023-03-05T12:33:38.197Z,11
2023-03-05T12:34:38.220Z,14
2023-03-05T12:35:38.342Z,10
2023-03-05T12:36:38.226Z,11
2023-03-05T12:37:38.212Z,13
2023-03-05T12:38:38.198Z,11
2023-03-05T12:39:38.209Z,9
2023-03-05T12:40:38.224Z,10
2023-03-05T12:41:38.207Z,11
2023-03-05T12:42:38.205Z,10
2023-03-05T12:43:38.198Z,11
2023-03-05T12:44:38.209Z,11
2023-03-05T12:45:38.204Z,8
2023-03-05T12:46:38.435Z,9
2023-03-05T12:47:40.297Z,10
2023-03-05T12:48:38.223Z,10
2023-03-05T12:49:38.201Z,7
2023-03-05T12:50:38.207Z,8
2023-03-05T12:51:38.212Z,9
2023-03-05T12:52:38.201Z,9
2023-03-05T12:53:38.206Z,8
2023-03-05T12:54:38.209Z,10
2023-03-05T12:55:38.208Z,12
2023-03-05T12:56:38.288Z,10
2023-03-05T12:57:38.202Z,10
2023-03-05T12:58:38.201Z,10
2023-03-05T12:59:38.197Z,11
2023-03-05T13:00:38.287Z,9
2023-03-05T13:01:38.212Z,9
2023-03-05T13:02:38.207Z,8
2023-03-05T13:03:38.270Z,10
2023-03-05T13:04:38.209Z,9
2023-03-05T13:05:38.214Z,9
2023-03-05T13:06:38.202Z,10
2023-03-05T13:07:38.200Z,8
2023-03-05T13:08:38.210Z,8
2023-03-05T13:09:38.198Z,9
2023-03-05T13:10:38.205Z,7
2023-03-05T13:11:38.304Z,7
2023-03-05T13:12:38.195Z,8
2023-03-05T13:13:38.204Z,8
2023-03-05T13:14:38.232Z,7
2023-03-05T13:15:38.196Z,8
2023-03-05T13:16:38.266Z,9
2023-03-05T13:17:38.278Z,9
2023-03-05T13:18:38.893Z,8
2023-03-05T13:19:38.201Z,9
2023-03-05T13:20:38.206Z,7
2023-03-05T13:21:38.200Z,7
2023-03-05T13:22:38.194Z,6
2023-03-05T13:23:38.199Z,8
2023-03-05T13:24:38.192Z,8
2023-03-05T13:25:38.196Z,7
2023-03-05T13:26:38.191Z,7
2023-03-05T13:27:38.202Z,9
2023-03-05T13:28:38.195Z,10
2023-03-05T13:29:38.200Z,9
2023-03-05T13:30:38.190Z,7
2023-03-05T13:31:38.237Z,8
2023-03-05T13:32:38.283Z,8
2023-03-05T13:33:38.193Z,7
2023-03-05T13:34:47.051Z,9
2023-03-05T13:35:38.233Z,8
2023-03-05T13:36:38.191Z,8
2023-03-05T13:38:38.196Z,8
2023-03-05T13:39:38.198Z,7
2023-03-05T13:40:38.192Z,14
2023-03-05T13:41:38.195Z,6
2023-03-05T13:42:38.217Z,8
2023-03-05T13:43:38.192Z,8
2023-03-05T13:44:38.225Z,7
2023-03-05T13:45:38.278Z,6
2023-03-05T13:46:38.190Z,8
2023-03-05T13:47:38.209Z,7
2023-03-05T13:48:38.189Z,8
2023-03-05T13:49:38.200Z,10
2023-03-05T13:50:38.199Z,10
2023-03-05T13:51:38.197Z,8
2023-03-05T13:52:38.272Z,11
2023-03-05T13:53:38.228Z,10
2023-03-05T13:54:38.194Z,9
2023-03-05T13:55:38.191Z,9
2023-03-05T13:56:38.190Z,8
2023-03-05T13:57:38.202Z,9
2023-03-05T13:58:38.192Z,9
2023-03-05T13:59:38.193Z,9
2023-03-05T14:00:38.194Z,10
2023-03-05T14:01:38.576Z,8
2023-03-05T14:02:38.197Z,8
2023-03-05T14:03:38.190Z,9
2023-03-05T14:04:38.315Z,9
2023-03-05T14:05:38.198Z,9
2023-03-05T14:06:38.200Z,7
2023-03-05T14:07:38.197Z,7
2023-03-05T14:08:38.190Z,8
2023-03-05T14:09:38.229Z,9
2023-03-05T14:10:38.232Z,6
2023-03-05T14:11:38.197Z,8
2023-03-05T14:12:38.186Z,8
2023-03-05T14:13:38.224Z,9
2023-03-05T14:14:38.207Z,8
2023-03-05T14:15:38.209Z,8
2023-03-05T14:16:38.239Z,9
2023-03-05T14:17:38.200Z,7
2023-03-05T14:18:38.196Z,7
2023-03-05T14:19:38.242Z,8
2023-03-05T14:20:38.215Z,8
2023-03-05T14:21:38.196Z,7
2023-03-05T14:22:38.209Z,7
2023-03-05T14:23:38.201Z,8
2023-03-05T14:24:38.247Z,6
2023-03-05T14:25:38.201Z,7
2023-03-05T14:26:38.218Z,9
2023-03-05T14:27:38.201Z,8
2023-03-05T14:28:38.210Z,9
2023-03-05T14:29:38.200Z,7
2023-03-05T14:30:38.297Z,8
2023-03-05T14:31:38.206Z,7
2023-03-05T14:32:38.237Z,7
2023-03-05T14:33:38.191Z,7
2023-03-05T14:34:38.243Z,6
2023-03-05T14:35:38.282Z,7
2023-03-05T14:36:38.200Z,7
2023-03-05T14:37:38.206Z,7
2023-03-05T14:38:38.206Z,6
2023-03-05T14:39:38.240Z,7
2023-03-05T14:40:38.206Z,7
2023-03-05T14:41:38.210Z,7
2023-03-05T14:42:39.415Z,7
2023-03-05T14:43:38.208Z,7
2023-03-05T14:44:38.228Z,9
2023-03-05T14:45:38.248Z,10
2023-03-05T14:46:38.216Z,7
2023-03-05T14:47:38.205Z,8
2023-03-05T14:48:38.209Z,9
2023-03-05T14:49:38.256Z,9
2023-03-05T14:50:38.216Z,9
2023-03-05T14:51:38.211Z,12
2023-03-05T14:52:38.210Z,9
2023-03-05T14:53:38.215Z,10
2023-03-05T14:54:38.238Z,10
2023-03-05T14:55:38.271Z,9
2023-03-05T14:56:38.211Z,11
2023-03-05T14:57:38.218Z,10
2023-03-05T14:58:38.202Z,10
2023-03-05T14:59:38.234Z,9
2023-03-05T15:00:38.228Z,9
2023-03-05T15:01:38.384Z,8
2023-03-05T15:02:38.287Z,9
2023-03-05T15:03:38.216Z,12
2023-03-05T15:04:38.208Z,11
2023-03-05T15:05:38.214Z,11
2023-03-05T15:06:38.207Z,11
2023-03-05T15:07:38.229Z,12
2023-03-05T15:08:38.224Z,13
2023-03-05T15:09:38.214Z,15
2023-03-05T15:10:38.203Z,13
2023-03-05T15:11:38.203Z,12
2023-03-05T15:12:38.204Z,12
2023-03-05T15:13:38.213Z,14
2023-03-05T15:14:38.208Z,14
2023-03-05T15:15:38.449Z,13
2023-03-05T15:16:38.213Z,15
2023-03-05T15:17:38.208Z,12
2023-03-05T15:18:38.254Z,14
2023-03-05T15:19:38.210Z,15
2023-03-05T15:20:38.223Z,14
2023-03-05T15:21:38.208Z,13
2023-03-05T15:22:38.210Z,12
2023-03-05T15:23:38.201Z,12
2023-03-05T15:24:38.204Z,12
2023-03-05T15:25:38.200Z,14
2023-03-05T15:26:38.206Z,12
2023-03-05T15:27:38.213Z,12
2023-03-05T15:28:38.214Z,14
2023-03-05T15:29:38.206Z,12
2023-03-05T15:30:38.204Z,12
2023-03-05T15:31:38.426Z,11
2023-03-05T15:32:38.290Z,11
2023-03-05T15:33:38.223Z,10
2023-03-05T15:34:38.203Z,9
2023-03-05T15:35:38.239Z,10
2023-03-05T15:36:38.212Z,9
2023-03-05T15:37:38.228Z,9
2023-03-05T15:38:38.206Z,8
2023-03-05T15:39:38.210Z,9
2023-03-05T15:40:38.205Z,8
2023-03-05T15:41:38.204Z,10
2023-03-05T15:42:38.205Z,9
2023-03-05T15:43:38.219Z,9
2023-03-05T15:44:38.212Z,9
2023-03-05T15:45:38.208Z,9
2023-03-05T15:46:38.278Z,10
2023-03-05T15:47:38.212Z,8
2023-03-05T15:48:38.207Z,10
2023-03-05T15:49:38.213Z,9
2023-03-05T15:50:38.211Z,11
2023-03-05T15:51:38.203Z,9
2023-03-05T15:52:38.215Z,8
2023-03-05T15:53:38.222Z,9
2023-03-05T15:54:38.218Z,8
2023-03-05T15:55:38.206Z,10
2023-03-05T15:56:38.211Z,8
2023-03-05T15:57:38.273Z,9
2023-03-05T15:58:38.206Z,10
2023-03-05T15:59:38.217Z,8
2023-03-05T16:00:38.207Z,7
2023-03-05T16:01:38.331Z,6
2023-03-05T16:02:38.226Z,6
2023-03-05T16:03:38.304Z,7